Time;durP1;ratioP1;P1;durP2;ratioP2;P2;SDS_P1;SDS_P2;PMS_P1;PMS_P2;Temp;Humidity;BMP_temperature;BMP_pressure;BME280_temperature;BME280_humidity;BME280_pressure;Samples;Min_cycle;Max_cycle;Signal;HPM_P1;HPM_P2
2023/08/01 00:01:50;;;;;;;3.33;2.00;;;;;;;;;;5029647;28;20288;-67
2023/08/01 00:04:17;;;;;;;3.47;2.38;;;;;;;;;;5029869;28;20614;-66
2023/08/01 00:06:43;;;;;;;2.22;2.13;;;;;;;;;;5029652;28;20303;-66
2023/08/01 00:09:10;;;;;;;2.88;2.67;;;;;;;;;;5028655;28;20875;-66
2023/08/01 00:11:36;;;;;;;2.08;1.98;;;;;;;;;;5030003;28;20227;-67
2023/08/01 00:14:04;;;;;;;2.40;2.30;;;;;;;;;;5029489;28;20265;-67
2023/08/01 00:16:32;;;;;;;2.75;2.55;;;;;;;;;;5028091;28;20681;-67
2023/08/01 00:18:58;;;;;;;4.28;2.30;;;;;;;;;;5028769;28;20239;-68
2023/08/01 00:21:25;;;;;;;2.50;2.40;;;;;;;;;;5029275;28;20204;-68
2023/08/01 00:23:51;;;;;;;1.83;1.73;;;;;;;;;;5029034;28;20293;-67
2023/08/01 00:26:18;;;;;;;2.50;2.40;;;;;;;;;;5029094;28;20209;-67
2023/08/01 00:28:44;;;;;;;3.58;2.63;;;;;;;;;;5029347;28;20211;-67
2023/08/01 00:31:12;;;;;;;3.92;2.95;;;;;;;;;;5029071;28;20273;-67
2023/08/01 00:33:39;;;;;;;2.60;2.47;;;;;;;;;;5028548;28;20204;-68
2023/08/01 00:36:08;;;;;;;2.53;2.10;;;;;;;;;;5028750;28;20199;-68
2023/08/01 00:38:35;;;;;;;2.67;2.47;;;;;;;;;;5029376;28;20199;-67
2023/08/01 00:41:01;;;;;;;2.45;2.25;;;;;;;;;;5029565;28;20219;-67
2023/08/01 00:43:28;;;;;;;2.22;2.13;;;;;;;;;;5028490;28;20564;-67
2023/08/01 00:45:56;;;;;;;4.90;2.15;;;;;;;;;;5029275;28;20196;-68
2023/08/01 00:48:24;;;;;;;3.80;2.00;;;;;;;;;;5028148;28;20707;-68
2023/08/01 00:50:51;;;;;;;3.78;2.28;;;;;;;;;;5029043;28;20690;-67
2023/08/01 00:53:17;;;;;;;2.30;2.20;;;;;;;;;;5028113;28;20220;-67
2023/08/01 00:55:44;;;;;;;2.72;2.50;;;;;;;;;;5028171;28;20246;-67
2023/08/01 00:58:10;;;;;;;3.28;2.58;;;;;;;;;;5028379;28;20296;-68
2023/08/01 01:00:38;;;;;;;2.58;2.38;;;;;;;;;;5025997;28;21668;-67
2023/08/01 01:03:05;;;;;;;2.42;2.20;;;;;;;;;;5028018;28;20230;-66
2023/08/01 01:05:36;;;;;;;2.38;2.15;;;;;;;;;;5027761;28;20243;-67
2023/08/01 01:08:03;;;;;;;2.80;2.60;;;;;;;;;;5028243;28;20207;-67
2023/08/01 01:10:30;;;;;;;2.30;2.20;;;;;;;;;;5027768;28;20786;-67
2023/08/01 01:12:56;;;;;;;2.67;2.45;;;;;;;;;;5028465;28;20214;-67
2023/08/01 01:15:22;;;;;;;3.45;2.10;;;;;;;;;;5025709;28;20218;-67
2023/08/01 01:17:49;;;;;;;2.40;2.20;;;;;;;;;;5026499;28;20745;-67
2023/08/01 01:20:15;;;;;;;2.38;2.17;;;;;;;;;;5027743;28;20210;-67
2023/08/01 01:22:43;;;;;;;4.97;1.92;;;;;;;;;;5027848;28;20293;-67
2023/08/01 01:25:11;;;;;;;2.17;1.85;;;;;;;;;;5027859;28;20200;-68
2023/08/01 01:27:38;;;;;;;6.97;2.17;;;;;;;;;;5026814;28;20227;-67
2023/08/01 01:30:06;;;;;;;2.13;2.03;;;;;;;;;;5027216;28;20619;-66
2023/08/01 01:32:33;;;;;;;2.13;2.00;;;;;;;;;;5027592;28;20235;-67
2023/08/01 01:34:59;;;;;;;2.33;2.22;;;;;;;;;;5027642;28;20200;-66
2023/08/01 01:37:26;;;;;;;1.98;1.88;;;;;;;;;;5026907;28;20708;-67
2023/08/01 01:39:54;;;;;;;2.40;2.15;;;;;;;;;;5026379;28;20195;-67
2023/08/01 01:42:20;;;;;;;2.20;2.00;;;;;;;;;;5025783;28;20203;-66
2023/08/01 01:44:47;;;;;;;4.65;2.08;;;;;;;;;;5026462;28;20211;-68
2023/08/01 01:47:13;;;;;;;1.70;1.60;;;;;;;;;;5025533;28;20228;-66
2023/08/01 01:49:39;;;;;;;4.00;2.30;;;;;;;;;;5025370;28;20297;-67
2023/08/01 01:52:06;;;;;;;7.72;2.20;;;;;;;;;;5025318;28;20243;-67
2023/08/01 01:54:33;;;;;;;3.15;2.60;;;;;;;;;;5027176;28;20238;-67
2023/08/01 01:57:00;;;;;;;2.05;1.95;;;;;;;;;;5027563;28;20220;-67
2023/08/01 01:59:27;;;;;;;3.13;2.45;;;;;;;;;;5027040;28;20755;-66
2023/08/01 02:01:53;;;;;;;2.30;2.20;;;;;;;;;;5026774;28;20203;-67
2023/08/01 02:04:20;;;;;;;2.50;2.30;;;;;;;;;;5027072;28;20794;-67
2023/08/01 02:06:46;;;;;;;4.22;2.10;;;;;;;;;;5026633;28;20200;-66
2023/08/01 02:09:12;;;;;;;1.88;1.77;;;;;;;;;;5026701;28;20253;-65
2023/08/01 02:11:39;;;;;;;3.45;2.38;;;;;;;;;;5026667;28;21489;-66
2023/08/01 02:14:07;;;;;;;3.30;2.10;;;;;;;;;;5026475;28;20207;-66
2023/08/01 02:16:33;;;;;;;4.68;2.30;;;;;;;;;;5027002;28;20858;-67
2023/08/01 02:19:00;;;;;;;2.22;2.13;;;;;;;;;;5027085;28;20697;-66
2023/08/01 02:21:26;;;;;;;2.25;2.10;;;;;;;;;;5025647;28;20647;-67
2023/08/01 02:23:52;;;;;;;2.58;2.38;;;;;;;;;;5026352;28;20629;-66
2023/08/01 02:26:19;;;;;;;2.50;2.40;;;;;;;;;;5025503;28;20262;-67
2023/08/01 02:28:45;;;;;;;2.70;2.50;;;;;;;;;;5027015;28;20223;-66
2023/08/01 02:31:13;;;;;;;2.97;2.50;;;;;;;;;;5026896;28;20220;-67
2023/08/01 02:33:39;;;;;;;2.15;2.05;;;;;;;;;;5027317;28;20285;-66
2023/08/01 02:36:06;;;;;;;2.30;2.10;;;;;;;;;;5026331;28;20215;-66
2023/08/01 02:38:32;;;;;;;4.75;2.30;;;;;;;;;;5026609;28;20662;-66
2023/08/01 02:40:59;;;;;;;2.15;2.00;;;;;;;;;;5026716;28;20192;-65
2023/08/01 02:43:25;;;;;;;2.78;2.05;;;;;;;;;;5026298;28;20284;-65
2023/08/01 02:45:52;;;;;;;2.42;2.33;;;;;;;;;;5025863;28;20566;-66
2023/08/01 02:48:19;;;;;;;3.60;2.30;;;;;;;;;;5026678;28;20260;-66
2023/08/01 02:50:46;;;;;;;2.95;2.25;;;;;;;;;;5026468;28;20706;-66
2023/08/01 02:53:13;;;;;;;3.08;2.45;;;;;;;;;;5025264;28;20248;-65
2023/08/01 02:55:39;;;;;;;2.67;2.47;;;;;;;;;;5027687;28;20289;-66
2023/08/01 02:58:06;;;;;;;2.28;2.13;;;;;;;;;;5026009;28;20203;-66
2023/08/01 03:00:32;;;;;;;4.20;2.28;;;;;;;;;;5026584;28;20701;-65
2023/08/01 03:02:59;;;;;;;2.88;2.65;;;;;;;;;;5026791;28;20227;-65
2023/08/01 03:05:26;;;;;;;3.05;2.45;;;;;;;;;;5027084;28;20669;-65
2023/08/01 03:07:53;;;;;;;2.42;2.22;;;;;;;;;;5026796;28;20235;-65
2023/08/01 03:10:19;;;;;;;4.35;2.60;;;;;;;;;;5027059;28;20277;-66
2023/08/01 03:12:46;;;;;;;2.88;2.67;;;;;;;;;;5026651;28;20200;-65
2023/08/01 03:15:12;;;;;;;3.05;2.20;;;;;;;;;;5027123;28;20282;-65
2023/08/01 03:17:39;;;;;;;2.78;2.60;;;;;;;;;;5025329;28;20590;-65
2023/08/01 03:20:10;;;;;;;3.05;2.80;;;;;;;;;;5025402;28;20199;-66
2023/08/01 03:22:38;;;;;;;2.67;2.58;;;;;;;;;;5024454;28;20234;-65
2023/08/01 03:25:07;;;;;;;3.05;2.30;;;;;;;;;;5027095;28;20192;-66
2023/08/01 03:27:33;;;;;;;3.13;2.83;;;;;;;;;;5029419;28;20291;-66
2023/08/01 03:30:00;;;;;;;2.80;2.58;;;;;;;;;;5029709;28;20438;-66
2023/08/01 03:32:27;;;;;;;2.88;2.67;;;;;;;;;;5029659;28;20222;-66
2023/08/01 03:34:53;;;;;;;2.80;2.60;;;;;;;;;;5029693;28;20208;-65
2023/08/01 03:37:19;;;;;;;2.85;2.70;;;;;;;;;;5028542;28;20196;-66
2023/08/01 03:39:47;;;;;;;2.97;2.78;;;;;;;;;;5029189;28;20688;-66
2023/08/01 03:42:14;;;;;;;3.15;2.80;;;;;;;;;;5028932;28;20693;-65
2023/08/01 03:44:40;;;;;;;4.95;2.72;;;;;;;;;;5030867;28;20303;-66
2023/08/01 03:47:07;;;;;;;3.22;2.90;;;;;;;;;;5030342;28;20215;-66
2023/08/01 03:49:34;;;;;;;3.25;3.03;;;;;;;;;;5030696;28;20722;-65
2023/08/01 03:52:00;;;;;;;4.15;3.85;;;;;;;;;;5031618;28;20259;-66
2023/08/01 03:54:27;;;;;;;2.70;2.60;;;;;;;;;;5033659;28;20199;-64
2023/08/01 03:56:54;;;;;;;2.50;2.40;;;;;;;;;;5030679;28;20231;-66
2023/08/01 03:59:21;;;;;;;6.53;2.78;;;;;;;;;;5030133;28;20238;-65
2023/08/01 04:01:47;;;;;;;3.10;2.90;;;;;;;;;;5030351;28;20206;-64
2023/08/01 04:04:14;;;;;;;4.03;2.80;;;;;;;;;;5030019;28;20247;-66
2023/08/01 04:06:40;;;;;;;3.30;3.03;;;;;;;;;;5031177;28;20200;-66
2023/08/01 04:09:08;;;;;;;3.38;2.88;;;;;;;;;;5028954;28;20763;-67
2023/08/01 04:11:34;;;;;;;3.10;2.90;;;;;;;;;;5029627;28;20224;-66
2023/08/01 04:14:02;;;;;;;2.60;2.50;;;;;;;;;;5030556;28;20203;-66
2023/08/01 04:16:29;;;;;;;4.95;3.00;;;;;;;;;;5029756;28;20690;-66
2023/08/01 04:18:55;;;;;;;5.63;2.53;;;;;;;;;;5029793;28;20227;-64
2023/08/01 04:21:22;;;;;;;2.83;2.50;;;;;;;-142.91;nan;109023.28;5030703;28;20304;-66
2023/08/01 04:23:48;;;;;;;2.60;2.40;;;;;;;189.72;nan;76280.00;5030703;28;20230;-66
2023/08/01 04:26:15;;;;;;;17.85;10.73;;;;;;;-142.91;100.00;56616.03;5030095;28;20305;-65
2023/08/01 04:28:41;;;;;;;14.43;12.95;;;;;;;;;;5029521;28;20204;-65
2023/08/01 04:31:09;;;;;;;6.00;5.47;;;;;;;;;;5029672;28;20324;-66
2023/08/01 04:33:36;;;;;;;3.05;2.88;;;;;;;;;;5029012;28;20628;-66
2023/08/01 04:36:02;;;;;;;2.88;2.67;;;;;;;;;;5029374;28;20239;-65
2023/08/01 04:38:29;;;;;;;6.45;2.58;;;;;;;;;;5028899;28;20261;-66
2023/08/01 04:40:55;;;;;;;3.97;2.42;;;;;;;;;;5029485;28;20223;-66
2023/08/01 04:43:21;;;;;;;3.50;2.67;;;;;;;;;;5029406;28;20281;-65
2023/08/01 04:45:48;;;;;;;3.30;2.65;;;;;;;;;;5029476;28;20213;-66
2023/08/01 04:48:16;;;;;;;7.07;3.20;;;;;;;;;;5028396;28;20203;-66
2023/08/01 04:50:42;;;;;;;5.85;2.80;;;;;;;;;;5028959;28;20582;-65
2023/08/01 04:53:09;;;;;;;4.75;3.03;;;;;;;;;;5029292;28;20333;-66
2023/08/01 04:55:35;;;;;;;49.35;37.97;;;;;;;;;;5028957;28;20231;-66
2023/08/01 04:58:02;;;;;;;25.83;17.88;;;;;;;;;;5028444;28;20204;-65
2023/08/01 05:00:28;;;;;;;9.07;7.68;;;;;;;;;;5029388;28;20593;-65
2023/08/01 05:02:54;;;;;;;3.97;2.90;;;;;;;;;;5028468;28;20208;-66
2023/08/01 05:05:22;;;;;;;3.20;2.88;;;;;;;;;;5028532;28;20628;-66
2023/08/01 05:07:49;;;;;;;3.08;2.83;;;;;;;;;;5028121;28;20296;-65
2023/08/01 05:10:15;;;;;;;5.22;2.83;;;;;;;;;;5028715;28;20207;-64
2023/08/01 05:12:42;;;;;;;3.88;3.17;;;;;;;;;;5028818;28;20207;-64
2023/08/01 05:15:08;;;;;;;2.83;2.50;;;;;;;;;;5027644;28;20228;-65
2023/08/01 05:17:35;;;;;;;7.82;2.80;;;;;;;;;;5026973;28;20265;-64
2023/08/01 05:20:03;;;;;;;2.42;2.30;;;;;;;;;;5026532;28;20212;-65
2023/08/01 05:22:31;;;;;;;2.97;2.78;;;;;;;;;;5026567;28;20232;-64
2023/08/01 05:24:57;;;;;;;4.55;2.65;;;;;;;;;;5027111;28;20243;-64
2023/08/01 05:27:24;;;;;;;3.88;2.53;;;;;;;;;;5026545;28;20195;-64
2023/08/01 05:29:50;;;;;;;2.50;2.30;;;;;;;;;;5026595;28;20203;-63
2023/08/01 05:32:17;;;;;;;2.95;2.75;;;;;;;;;;5026501;28;20231;-64
2023/08/01 05:34:43;;;;;;;6.28;2.55;;;;;;;;;;5028008;28;20261;-64
2023/08/01 05:37:10;;;;;;;2.90;2.70;;;;;;;;;;5027977;28;20643;-65
2023/08/01 05:39:37;;;;;;;3.10;2.60;;;;;;;;;;5027088;28;20199;-65
2023/08/01 05:42:08;;;;;;;2.88;2.67;;;;;;;;;;5026263;28;20674;-65
2023/08/01 05:44:34;;;;;;;3.15;2.85;;;;;;;;;;5026397;28;20196;-65
2023/08/01 05:47:01;;;;;;;3.05;2.80;;;;;;;;;;5025712;28;20214;-64
2023/08/01 05:49:28;;;;;;;9.43;2.53;;;;;;;;;;5026820;28;20208;-65
2023/08/01 05:51:54;;;;;;;3.00;2.75;;;;;;;;;;5026462;28;20223;-65
2023/08/01 05:54:21;;;;;;;3.88;3.10;;;;;;;;;;5027505;28;20199;-64
2023/08/01 05:56:48;;;;;;;5.03;2.50;;;;;;;;;;5027806;28;20238;-65
2023/08/01 05:59:15;;;;;;;7.72;2.78;;;;;;;;;;5027723;28;20200;-65
2023/08/01 06:01:41;;;;;;;3.35;3.15;;;;;;;;;;5027084;28;20257;-63
2023/08/01 06:04:08;;;;;;;5.82;2.83;;;;;;;;;;5027994;28;20231;-64
2023/08/01 06:06:34;;;;;;;5.47;3.33;;;;;;;;;;5027597;28;21501;-65
2023/08/01 06:09:01;;;;;;;4.68;4.18;;;;;;;;;;5027777;28;20214;-66
2023/08/01 06:11:28;;;;;;;7.07;4.57;;;;;;;;;;5026986;28;20238;-66
2023/08/01 06:13:56;;;;;;;4.53;4.00;;;;;;;;;;5027254;28;20285;-66
2023/08/01 06:16:23;;;;;;;4.80;4.40;;;;;;;;;;5026628;28;20595;-66
2023/08/01 06:18:49;;;;;;;9.13;5.78;;;;;;;;;;5028305;28;20207;-66
2023/08/01 06:21:15;;;;;;;4.70;4.00;;;;;;;;;;5026435;28;20310;-65
2023/08/01 06:23:42;;;;;;;5.30;3.92;;;;;;;;;;5027471;28;21004;-66
2023/08/01 06:26:09;;;;;;;4.50;4.10;;;;;;;;;;5026213;28;20212;-66
2023/08/01 06:28:35;;;;;;;4.05;3.08;;;;;;;;;;5027159;28;20207;-66
2023/08/01 06:31:03;;;;;;;4.18;2.95;;;;;;;;;;5027493;28;20301;-66
2023/08/01 06:33:29;;;;;;;3.63;3.22;;;;;;;;;;5026295;28;20653;-65
2023/08/01 06:35:56;;;;;;;2.80;2.67;;;;;;;;;;5026925;28;20255;-66
2023/08/01 06:38:22;;;;;;;2.35;2.25;;;;;;;;;;5026319;28;20203;-65
2023/08/01 06:40:49;;;;;;;3.92;2.60;;;;;;;;;;5026671;28;20235;-67
2023/08/01 06:43:15;;;;;;;6.32;2.40;;;;;;;;;;5027829;28;20207;-65
2023/08/01 06:45:42;;;;;;;2.65;2.17;;;;;;;;;;5026955;28;20309;-66
2023/08/01 06:48:09;;;;;;;2.38;2.28;;;;;;;;;;5026372;28;20280;-67
2023/08/01 06:50:36;;;;;;;3.58;3.28;;;;;;;;;;5027414;28;20199;-66
2023/08/01 06:53:03;;;;;;;5.65;2.97;;;;;;;;;;5026524;28;20229;-67
2023/08/01 06:55:29;;;;;;;6.35;3.60;;;;;;;;;;5025554;28;20222;-66
2023/08/01 06:57:56;;;;;;;3.13;2.92;;;;;;;50.33;nan;94737.09;5024672;28;20199;-66
2023/08/01 07:00:22;;;;;;;4.13;3.70;;;;;;;50.85;nan;94729.25;5024730;28;21049;-66
2023/08/01 07:02:50;;;;;;;6.22;4.07;;;;;;;51.45;nan;94731.38;5024850;28;20195;-67
2023/08/01 07:05:18;;;;;;;3.60;3.28;;;;;;;51.73;nan;94725.69;5024284;28;20207;-65
2023/08/01 07:07:45;;;;;;;5.78;4.60;;;;;;;51.98;nan;94728.38;5024674;28;20277;-64
2023/08/01 07:10:12;;;;;;;6.13;5.53;;;;;;;51.58;nan;94719.59;5022622;28;20572;-64
2023/08/01 07:12:38;;;;;;;5.75;5.18;;;;;;;51.24;nan;94725.72;5024985;28;20700;-65
2023/08/01 07:15:06;;;;;;;4.57;4.15;;;;;;;51.82;nan;94723.75;5022690;28;20304;-66
2023/08/01 07:17:33;;;;;;;3.70;3.00;;;;;;;52.76;nan;94724.72;5024940;28;20195;-65
2023/08/01 07:19:59;;;;;;;3.88;3.30;;;;;;;52.77;nan;94715.47;5024234;28;20246;-67
2023/08/01 07:22:27;;;;;;;7.70;2.83;;;;;;;52.72;nan;94708.28;5024986;28;20632;-66
2023/08/01 07:24:55;;;;;;;2.75;2.65;;;;;;;51.59;nan;94717.66;5024478;28;20691;-66
2023/08/01 07:27:22;;;;;;;4.57;2.88;;;;;;;;;;5024300;28;20253;-66
2023/08/01 07:29:49;;;;;;;4.18;2.70;;;;;;;51.33;nan;94712.22;5024736;28;20195;-66
2023/08/01 07:32:16;;;;;;;4.45;3.00;;;;;;;51.83;nan;94709.09;5023297;28;20660;-66
2023/08/01 07:34:42;;;;;;;2.90;2.72;;;;;;;52.26;nan;94701.69;5025330;28;20690;-66
2023/08/01 07:37:09;;;;;;;5.03;3.00;;;;;;;51.25;nan;94702.94;5024449;28;20199;-65
2023/08/01 07:39:37;;;;;;;7.45;3.15;;;;;;;49.92;nan;94694.06;5022553;28;20633;-66
2023/08/01 07:42:04;;;;;;;9.57;2.97;;;;;;;49.22;nan;94701.84;5023302;28;20292;-65
2023/08/01 07:44:32;;;;;;;3.20;2.60;;;;;;;50.04;nan;94707.00;5024253;28;20214;-66
2023/08/01 07:46:58;;;;;;;8.48;3.05;;;;;;;51.09;nan;94701.81;5023971;28;20238;-66
2023/08/01 07:49:25;;;;;;;4.03;2.78;;;;;;;51.51;nan;94703.00;5024578;28;20611;-66
2023/08/01 07:51:52;;;;;;;3.67;2.53;;;;;;;51.54;nan;94707.78;5025681;28;20227;-66
2023/08/01 07:54:18;;;;;;;3.45;3.15;;;;;;;51.76;nan;94714.19;5026260;28;20261;-66
2023/08/01 07:56:48;;;;;;;9.30;3.05;;;;;;;51.82;nan;94702.06;5025756;28;20211;-66
2023/08/01 07:59:15;;;;;;;6.15;2.78;;;;;;;51.67;nan;94696.03;5025414;28;20214;-67
2023/08/01 08:01:42;;;;;;;5.47;3.08;;;;;;;52.01;nan;94699.84;5025692;28;20579;-67
2023/08/01 08:04:08;;;;;;;2.78;2.60;;;;;;;53.03;nan;94701.78;5025812;28;20238;-67
2023/08/01 08:06:35;;;;;;;6.40;3.00;;;;;;;51.63;nan;94699.69;5025522;28;20230;-68
2023/08/01 08:09:03;;;;;;;4.75;2.90;;;;;;;51.45;nan;94693.47;5026296;28;20309;-67
2023/08/01 08:11:29;;;;;;;5.03;2.80;;;;;;;51.52;nan;94688.34;5027471;28;20203;-67
2023/08/01 08:13:57;;;;;;;3.42;2.33;;;;;;;51.56;nan;94686.59;5030104;28;20207;-65
2023/08/01 08:16:24;;;;;;;2.95;2.75;;;;;;;50.99;nan;94675.84;5029320;28;20665;-64
2023/08/01 08:18:51;;;;;;;4.53;3.20;;;;;;;50.99;nan;94686.66;5029776;28;20591;-65
2023/08/01 08:21:17;;;;;;;3.10;2.83;;;;;;;51.29;nan;94678.78;5028805;28;20223;-66
2023/08/01 08:23:44;;;;;;;3.38;2.92;;;;;;;51.24;nan;94681.59;5028235;28;20268;-65
2023/08/01 08:26:11;;;;;;;3.28;2.65;;;;;;;51.27;nan;94672.88;5029376;28;20203;-66
2023/08/01 08:28:39;;;;;;;4.20;3.10;;;;;;;51.59;nan;94677.84;5029109;28;20215;-66
2023/08/01 08:31:07;;;;;;;5.18;2.90;;;;;;;51.40;nan;94673.84;5028382;28;20210;-67
2023/08/01 08:33:34;;;;;;;4.15;2.75;;;;;;;;;;5029459;28;20321;-66
2023/08/01 08:36:00;;;;;;;2.55;2.42;;;;;;;51.91;nan;94663.00;5028213;28;20739;-66
2023/08/01 08:38:28;;;;;;;3.03;2.80;;;;;;;51.80;nan;94659.03;5029403;28;20226;-66
2023/08/01 08:41:06;;;;;;;6.32;3.05;;;;;;;52.39;nan;94667.41;5029618;28;20206;-65
2023/08/01 08:43:34;;;;;;;5.85;3.25;;;;;;;50.71;nan;94658.25;5028756;28;20211;-66
2023/08/01 08:46:02;;;;;;;12.52;2.90;;;;;;;50.29;nan;94654.22;5028956;28;20195;-65
2023/08/01 08:48:31;;;;;;;3.75;2.75;;;;;;;50.73;nan;94653.31;5029101;28;20222;-65
2023/08/01 08:50:59;;;;;;;3.42;3.00;;;;;;;50.23;nan;94641.94;5028923;28;20266;-65
2023/08/01 08:53:26;;;;;;;5.88;2.92;;;;;;;48.65;nan;94647.38;5028443;28;20229;-65
2023/08/01 08:55:53;;;;;;;2.88;2.45;;;;;;;48.66;nan;94643.59;5029273;28;20210;-65
2023/08/01 08:58:20;;;;;;;3.58;2.72;;;;;;;48.84;nan;94645.38;5028866;28;20310;-65
2023/08/01 09:00:47;;;;;;;3.30;3.10;;;;;;;48.92;nan;94652.78;5029115;28;20265;-65
2023/08/01 09:03:14;;;;;;;3.00;2.80;;;;;;;48.99;nan;94642.41;5028133;28;20234;-65
2023/08/01 09:05:46;;;;;;;2.97;2.38;;;;;;;49.85;nan;94642.31;5028841;28;20661;-66
2023/08/01 09:08:16;;;;;;;5.70;2.80;;;;;;;;;;5027507;28;21288;-65
2023/08/01 09:10:43;;;;;;;3.00;2.80;;;;;;;49.32;nan;94634.13;5028517;28;20685;-64
2023/08/01 09:13:10;;;;;;;3.47;3.17;;;;;;;47.81;nan;94639.44;5028380;28;20331;-65
2023/08/01 09:15:38;;;;;;;4.80;3.03;;;;;;;45.82;nan;94634.00;5027992;28;20286;-65
2023/08/01 09:18:08;;;;;;;2.88;2.60;;;;;;;44.81;nan;94633.56;5026267;28;20195;-66
2023/08/01 09:20:43;;;;;;;3.03;2.63;;;;;;;44.62;nan;94608.41;5027120;28;20281;-65
2023/08/01 09:23:10;;;;;;;4.13;2.72;;;;;;;44.53;nan;94620.81;5025268;28;20211;-65
2023/08/01 09:25:37;;;;;;;2.95;2.75;;;;;;;44.16;nan;94626.50;5027157;28;20200;-65
2023/08/01 09:28:15;;;;;;;6.43;5.20;;;;;;;43.87;nan;94618.22;5026943;28;20300;-65
2023/08/01 09:30:46;;;;;;;9.25;6.65;;;;;;;;;;5027116;28;20289;-65
2023/08/01 09:33:13;;;;;;;8.13;5.28;;;;;;;43.17;nan;94617.06;5026812;28;20228;-65
2023/08/01 09:35:40;;;;;;;4.32;3.95;;;;;;;42.14;nan;94622.22;5027962;28;20200;-66
2023/08/01 09:38:08;;;;;;;6.65;3.55;;;;;;;41.04;nan;94622.63;5026899;28;20207;-66
2023/08/01 09:40:37;;;;;;;2.83;2.58;;;;;;;40.04;nan;94625.59;5028624;28;20297;-65
2023/08/01 09:43:04;;;;;;;3.28;2.97;;;;;;;39.27;nan;94620.03;5028658;28;20290;-65
2023/08/01 09:45:31;;;;;;;3.63;3.42;;;;;;;38.35;nan;94612.94;5028108;28;20226;-66
2023/08/01 09:47:58;;;;;;;3.67;3.15;;;;;;;37.64;nan;94621.88;5029467;28;20258;-66
2023/08/01 09:50:25;;;;;;;3.50;3.30;;;;;;;36.67;nan;94615.09;5029601;28;20211;-67
2023/08/01 09:52:53;;;;;;;4.15;3.63;;;;;;;35.96;nan;94623.59;5030096;28;20318;-65
2023/08/01 09:55:26;;;;;;;3.40;3.20;;;;;;;35.25;nan;94621.28;5028770;28;20294;-65
2023/08/01 09:57:55;;;;;;;3.30;3.00;;;;;;;;;;5028513;28;20354;-65
2023/08/01 10:00:21;;;;;;;3.55;3.15;;;;;;;;;;5028409;28;20261;-65
2023/08/01 10:02:50;;;;;;;3.78;2.90;;;;;;;;;;5025745;28;20250;-64
2023/08/01 10:05:17;;;;;;;4.03;3.00;;;;;;;;;;5027405;28;20195;-63
2023/08/01 10:07:44;;;;;;;4.22;3.25;;;;;;;;;;5028224;28;20199;-64
2023/08/01 10:10:11;;;;;;;5.80;3.00;;;;;;;;;;5027880;28;20254;-65
2023/08/01 10:12:40;;;;;;;4.75;3.13;;;;;;;;;;5027733;28;20232;-65
2023/08/01 10:15:07;;;;;;;8.63;3.35;;;;;;;;;;5031550;28;20295;-64
2023/08/01 10:17:35;;;;;;;3.25;3.05;;;;;;;;;;5028432;28;20254;-64
2023/08/01 10:20:03;;;;;;;6.57;3.40;;;;;;;;;;5027760;28;20253;-64
2023/08/01 10:22:30;;;;;;;8.77;3.65;;;;;;;;;;5028650;28;20208;-65
2023/08/01 10:24:56;;;;;;;3.90;3.65;;;;;;;;;;5029046;28;20947;-64
2023/08/01 10:27:23;;;;;;;3.65;3.45;;;;;;;;;;5026102;28;20207;-64
2023/08/01 10:29:58;;;;;;;3.25;2.95;;;;;;;;;;5028022;28;20227;-65
2023/08/01 10:32:28;;;;;;;4.57;3.53;;;;;;;;;;5027582;28;20234;-65
2023/08/01 10:34:55;;;;;;;3.40;3.20;;;;;;;;;;5027252;28;20242;-65
2023/08/01 10:37:21;;;;;;;5.95;3.00;;;;;;;;;;5026555;28;20211;-65
2023/08/01 10:39:56;;;;;;;3.00;2.80;;;;;;;;;;5026962;28;20219;-65
2023/08/01 10:42:23;;;;;;;5.50;3.10;;;;;;;;;;5027894;28;20200;-66
2023/08/01 10:44:49;;;;;;;3.78;2.75;;;;;;;;;;5025511;28;20261;-65
2023/08/01 10:47:26;;;;;;;4.55;3.15;;;;;;;30.64;nan;94522.00;5027298;28;20231;-63
2023/08/01 10:49:53;;;;;;;3.72;2.95;;;;;;;;;;5026852;28;20192;-64
2023/08/01 10:52:21;;;;;;;3.42;3.20;;;;;;;;;;5027080;28;20705;-65
2023/08/01 10:54:48;;;;;;;6.63;3.33;;;;;;;;;;5026168;28;20254;-66
2023/08/01 10:57:16;;;;;;;3.45;3.15;;;;;;;;;;5027272;28;20211;-65
2023/08/01 10:59:43;;;;;;;3.65;3.13;;;;;;;;;;5027226;28;20215;-65
2023/08/01 11:02:10;;;;;;;3.17;2.97;;;;;;;;;;5024120;28;20383;-64
2023/08/01 11:04:37;;;;;;;3.17;2.95;;;;;;;;;;5026651;28;20246;-65
2023/08/01 11:07:05;;;;;;;4.60;3.33;;;;;;;;;;5027113;28;20223;-63
2023/08/01 11:09:31;;;;;;;3.17;2.95;;;;;;;;;;5026677;28;20285;-65
2023/08/01 11:11:59;;;;;;;3.33;3.13;;;;;;;;;;5026800;28;20561;-64
2023/08/01 11:14:26;;;;;;;5.20;3.40;;;;;;;;;;5026098;28;20230;-64
2023/08/01 11:16:54;;;;;;;2.67;2.42;;;;;;;;;;5025047;28;20231;-65
2023/08/01 11:19:22;;;;;;;8.48;2.92;;;;;;;;;;5024942;28;20245;-64
2023/08/01 11:21:49;;;;;;;6.38;5.97;;;;;;;;;;5025373;28;20262;-65
2023/08/01 11:24:16;;;;;;;4.05;3.70;;;;;;;;;;5025110;28;20294;-63
2023/08/01 11:26:43;;;;;;;2.97;2.78;;;;;;;;;;5025094;28;20234;-64
2023/08/01 11:29:10;;;;;;;5.35;3.80;;;;;;;;;;5023188;28;20196;-64
2023/08/01 11:31:37;;;;;;;3.17;2.97;;;;;;;;;;5024818;28;20238;-65
2023/08/01 11:34:03;;;;;;;3.00;2.80;;;;;;;;;;5022892;28;20328;-64
2023/08/01 11:36:30;;;;;;;3.08;2.53;;;;;;;;;;5024524;28;20214;-64
2023/08/01 11:38:59;;;;;;;3.55;2.80;;;;;;;;;;5025610;28;20293;-62
2023/08/01 11:41:25;;;;;;;2.80;2.70;;;;;;;;;;5026765;28;20209;-64
2023/08/01 11:43:54;;;;;;;4.25;3.95;;;;;;;;;;5026428;28;20283;-63
2023/08/01 11:46:21;;;;;;;7.20;6.07;;;;;;;;;;5028974;28;20211;-65
2023/08/01 11:48:49;;;;;;;5.85;5.25;;;;;;;;;;5030046;28;20200;-64
2023/08/01 11:51:16;;;;;;;2.38;2.28;;;;;;;;;;5030286;28;20673;-63
2023/08/01 11:53:42;;;;;;;3.97;3.63;;;;;;;;;;5030574;28;20224;-62
2023/08/01 11:56:20;;;;;;;4.55;4.15;;;;;;;;;;5030362;28;20208;-64
2023/08/01 11:58:47;;;;;;;4.25;3.85;;;;;;;;;;5030465;28;20673;-64
2023/08/01 12:01:13;;;;;;;3.55;3.25;;;;;;;;;;5029914;28;20235;-66
2023/08/01 12:03:43;;;;;;;3.92;3.47;;;;;;;;;;5029714;28;20669;-65
2023/08/01 12:06:11;;;;;;;3.80;3.45;;;;;;;;;;5029967;28;20242;-64
2023/08/01 12:08:37;;;;;;;4.75;3.78;;;;;;;;;;5029187;28;20662;-66
2023/08/01 12:11:04;;;;;;;3.67;3.15;;;;;;;;;;5029388;28;20796;-64
2023/08/01 12:13:32;;;;;;;3.33;2.78;;;;;;;;;;5029632;28;20579;-63
2023/08/01 12:15:59;;;;;;;2.67;2.58;;;;;;;;;;5029953;28;20258;-64
2023/08/01 12:18:26;;;;;;;2.15;1.95;;;;;;;;;;5029901;28;20291;-64
2023/08/01 12:20:53;;;;;;;2.20;2.10;;;;;;;;;;5029573;28;20207;-63
2023/08/01 12:23:19;;;;;;;2.33;2.13;;;;;;;;;;5030062;28;20196;-65
2023/08/01 12:25:46;;;;;;;2.45;2.33;;;;;;;;;;5029831;28;20239;-63
2023/08/01 12:28:14;;;;;;;1.80;1.70;;;;;;;;;;5029675;28;20258;-64
2023/08/01 12:30:42;;;;;;;2.10;2.00;;;;;;;;;;5027394;28;20211;-64
2023/08/01 12:33:08;;;;;;;2.15;1.92;;;;;;;;;;5029600;28;20224;-64
2023/08/01 12:35:35;;;;;;;2.20;2.10;;;;;;;;;;5029632;28;20211;-64
2023/08/01 12:38:01;;;;;;;2.03;1.92;;;;;;;;;;5029600;28;20231;-65
2023/08/01 12:40:27;;;;;;;2.30;1.98;;;;;;;;;;5029940;28;20265;-64
2023/08/01 12:42:54;;;;;;;4.45;1.90;;;;;;;;;;5029089;28;20563;-63
2023/08/01 12:45:20;;;;;;;2.75;2.30;;;;;;;28.99;nan;94417.72;5029543;28;20235;-64
2023/08/01 12:47:49;;;;;;;1.95;1.85;;;;;;;;;;5025975;28;20262;-62
2023/08/01 12:50:16;;;;;;;1.90;1.80;;;;;;;;;;5029652;28;20207;-64
2023/08/01 12:52:42;;;;;;;3.00;2.80;;;;;;;;;;5029073;28;20251;-64
2023/08/01 12:55:09;;;;;;;2.90;2.13;;;;;;;;;;5027682;28;20251;-65
2023/08/01 12:57:35;;;;;;;2.20;2.10;;;;;;;;;;5027528;28;20231;-65
2023/08/01 13:00:02;;;;;;;2.00;1.90;;;;;;;;;;5027860;28;20203;-65
2023/08/01 13:02:29;;;;;;;5.50;2.42;;;;;;;;;;5028938;28;20204;-63
2023/08/01 13:04:56;;;;;;;4.53;2.70;;;;;;;;;;5026785;28;20315;-63
2023/08/01 13:07:23;;;;;;;5.53;2.63;;;;;;;;;;5028006;28;20258;-64
2023/08/01 13:09:49;;;;;;;2.38;2.22;;;;;;;;;;5028707;28;20227;-65
2023/08/01 13:12:16;;;;;;;3.60;2.47;;;;;;;;;;5028810;28;20215;-65
2023/08/01 13:14:42;;;;;;;3.25;2.83;;;;;;;;;;5025769;28;20317;-63
2023/08/01 13:17:09;;;;;;;6.95;2.17;;;;;;;;;;5026748;28;20328;-67
2023/08/01 13:19:35;;;;;;;2.13;1.90;;;;;;;;;;5026006;28;20292;-61
2023/08/01 13:22:03;;;;;;;4.03;2.35;;;;;;;;;;5028166;28;20211;-65
2023/08/01 13:24:30;;;;;;;2.95;2.35;;;;;;;;;;5026706;28;20278;-62
2023/08/01 13:26:56;;;;;;;2.00;1.90;;;;;;;;;;5027047;28;20261;-64
2023/08/01 13:29:23;;;;;;;2.42;2.22;;;;;;;;;;5025716;28;20678;-64
2023/08/01 13:31:49;;;;;;;3.70;2.30;;;;;;;;;;5027413;28;20783;-64
2023/08/01 13:34:17;;;;;;;2.92;2.28;;;;;;;;;;5027064;28;20282;-63
2023/08/01 13:36:43;;;;;;;3.83;3.58;;;;;;;;;;5028569;28;20281;-64
2023/08/01 13:39:11;;;;;;;9.93;7.43;;;;;;;;;;5026880;28;20199;-65
2023/08/01 13:41:38;;;;;;;4.88;4.30;;;;;;;;;;5025201;28;20293;-63
2023/08/01 13:44:04;;;;;;;4.07;3.72;;;;;;;;;;5025999;28;20750;-65
2023/08/01 13:46:31;;;;;;;3.58;2.70;;;;;;;;;;5027142;28;20320;-64
2023/08/01 13:48:57;;;;;;;2.78;2.53;;;;;;;;;;5026231;28;20662;-64
2023/08/01 13:51:24;;;;;;;2.50;2.40;;;;;;;;;;5026643;28;20199;-63
2023/08/01 13:53:50;;;;;;;2.20;2.10;;;;;;;;;;5026721;28;20254;-64
2023/08/01 13:56:18;;;;;;;3.45;2.15;;;;;;;;;;5028255;28;20274;-63
2023/08/01 13:58:44;;;;;;;2.05;1.95;;;;;;;;;;5027159;28;20208;-65